Craig Municipal Airport
KCRG : now visible

Airfield :











YOU CAN JOIN US ON...

 
LOGIN :

Register | Disclaimer

   EN    FR    IT 

 









Legend :    VFR   Marginal VFR   IFR   Intensive IFR   Very Intensive IFR
Visi :
Ceiling :
>= 8 km
>= 3000ft
5 to 8 km
1000 to 3000 ft
1500m to 5 km
500 to 1000 ft
800 to 1500m
200 to 500 ft
< 800m
< 200 ft
Symbols :   Thunderstorms  Fog  Heavy snow  Heavy precipitations  Wind > 20 kt






- Airport Elevation : 41 ft


KCRG - Craig Municipal

CURRENT METAR :
  • 250653Z AUTO 11005KT 10SM CLR 25/22 A2999 RMK AO2 SLP155 T02500222

EXPIRED METARs :
  • 250553Z AUTO 09006KT 10SM CLR 25/22 A3000 RMK AO2 SLP159 T02500222 10261 20250 58005
  • 250453Z AUTO 11006KT 10SM SCT023 25/22 A3001 RMK AO2 SLP161 T02500222 402940211

TAF KCRG
Valid from the 25 at 06:00 until the 26 at 06:00 UTC


250541Z 2506/2606 VRB03KT P6SM SCT025 BKN200
TEMPO 2510/2514 BKN025
FM251400 10011G18KT P6SM SCT025 OVC040
FM251800 10015G22KT P6SM VCTS SCT025 OVC035CB
FM260100 10012KT P6SM VCTS SCT030CB OVC100
KZJX FIR / North America



MET'MAP, your aeronautical weather chart ! - Copyright ORBIFLY December 2007 - Disclaimer

ORBIFLY MET'MAP TEAM :

Programming & Development : Alexandra Zaïnal
Concept & original design : Baudouin d'Aumeries
Assistance for programming : Marc-Olivier Méhu
Technical & hardware support : Manuel Goepfert

Contact : metmap@orbifly.com




SOURCES & CREDITS :

   NOAA       Earth
Advisory